Schneifelwetter: Wetterstation Hallschlag, 537 m . NN
Wetterdaten: Donnerstag, 11.08.2011
Datum Zeit Temp. A. Feuchte A. Luftdruck Regen Wind Richtung Richtung Sonnenschein T Regen Taupunkt Windchill
11.08.2011 00:09 11,4 C 75 % 1018 hPa 0,0 l/m 21,4 km/h (4 Bft) SW22.5 235 0 min 0 min 7,1 C 4,7 C
11.08.2011 00:24 11,3 C 76 % 1018 hPa 0,0 l/m 22,6 km/h (4 Bft) SW45 235 0 min 0 min 7,2 C 4,2 C
11.08.2011 00:39 11,4 C 77 % 1018 hPa 0,0 l/m 18,9 km/h (3 Bft) SW45 235 0 min 0 min 7,5 C 5,4 C
11.08.2011 00:54 11,3 C 76 % 1018 hPa 0,0 l/m 18,0 km/h (3 Bft) SW45 220 0 min 0 min 7,2 C 5,6 C
11.08.2011 01:09 11,1 C 77 % 1018 hPa 0,0 l/m 10,3 km/h (2 Bft) SW 230 0 min 0 min 7,2 C 8,6 C
11.08.2011 01:24 10,9 C 78 % 1018 hPa 0,0 l/m 16,0 km/h (3 Bft) W-SW22.5 240 0 min 0 min 7,2 C 5,8 C
11.08.2011 01:39 11,0 C 78 % 1017 hPa 0,0 l/m 21,7 km/h (4 Bft) W-SW22.5 250 0 min 0 min 7,3 C 4,1 C
11.08.2011 01:54 11,0 C 79 % 1017 hPa 0,0 l/m 23,0 km/h (4 Bft) W-SW22.5 250 0 min 0 min 7,5 C 3,7 C
11.08.2011 02:09 10,8 C 79 % 1017 hPa 0,0 l/m 15,0 km/h (3 Bft) W-SW22.5 255 0 min 0 min 7,3 C 6,1 C
11.08.2011 02:25 10,6 C 79 % 1017 hPa 0,0 l/m 16,1 km/h (3 Bft) W-SW45 250 0 min 0 min 7,1 C 5,4 C
11.08.2011 02:40 10,3 C 80 % 1017 hPa 0,0 l/m 12,6 km/h (3 Bft) SW 235 0 min 0 min 7,0 C 6,6 C
11.08.2011 02:55 10,3 C 82 % 1017 hPa 0,0 l/m 15,1 km/h (3 Bft) W-SW45 245 0 min 0 min 7,4 C 5,5 C
11.08.2011 03:10 10,4 C 81 % 1017 hPa 0,0 l/m 11,0 km/h (2 Bft) SW22.5 235 0 min 0 min 7,3 C 7,5 C
11.08.2011 03:25 10,4 C 81 % 1017 hPa 0,0 l/m 9,5 km/h (2 Bft) W-SW 240 0 min 0 min 7,3 C 8,3 C
11.08.2011 03:40 10,4 C 82 % 1017 hPa 0,0 l/m 11,4 km/h (2 Bft) SW 230 0 min 0 min 7,5 C 7,3 C
11.08.2011 03:55 10,2 C 82 % 1016 hPa 0,0 l/m 6,8 km/h (2 Bft) SW 230 0 min 0 min 7,3 C 9,9 C
11.08.2011 04:09 10,1 C 82 % 1016 hPa 0,0 l/m 6,3 km/h (2 Bft) SW 230 0 min 0 min 7,2 C 10,1 C
11.08.2011 04:24 10,1 C 82 % 1016 hPa 0,0 l/m 7,6 km/h (2 Bft) SW 230 0 min 0 min 7,2 C 9,2 C
11.08.2011 04:39 10,1 C 82 % 1016 hPa 0,0 l/m 6,7 km/h (2 Bft) SW 230 0 min 0 min 7,2 C 9,9 C
11.08.2011 04:54 10,3 C 83 % 1016 hPa 0,0 l/m 13,8 km/h (3 Bft) W-SW22.5 240 0 min 0 min 7,5 C 6,0 C
11.08.2011 05:09 10,5 C 83 % 1016 hPa 0,0 l/m 15,0 km/h (3 Bft) SW22.5 230 0 min 0 min 7,7 C 5,7 C
11.08.2011 05:24 10,7 C 82 % 1016 hPa 0,0 l/m 16,5 km/h (3 Bft) SW45 220 0 min 0 min 7,8 C 5,4 C
11.08.2011 05:39 10,8 C 82 % 1016 hPa 0,0 l/m 14,0 km/h (3 Bft) W-SW45 240 0 min 0 min 7,9 C 6,5 C
11.08.2011 05:54 10,7 C 83 % 1016 hPa 0,0 l/m 16,6 km/h (3 Bft) SW22.5 230 0 min 0 min 7,9 C 5,4 C
11.08.2011 06:09 10,6 C 83 % 1016 hPa 0,0 l/m 14,0 km/h (3 Bft) S-SW45 210 0 min 0 min 7,8 C 6,3 C
11.08.2011 06:24 10,7 C 83 % 1015 hPa 0,0 l/m 23,8 km/h (4 Bft) SW45 235 0 min 0 min 7,9 C 3,1 C
11.08.2011 06:39 10,8 C 83 % 1015 hPa 0,0 l/m 20,0 km/h (4 Bft) W-SW67.5 250 0 min 0 min 8,0 C 4,3 C
11.08.2011 06:54 10,9 C 82 % 1015 hPa 0,0 l/m 17,9 km/h (3 Bft) W-SW45 240 0 min 0 min 7,9 C 5,1 C
11.08.2011 07:09 10,9 C 82 % 1016 hPa 0,0 l/m 19,7 km/h (3 Bft) S-SW67.5 210 0 min 0 min 7,9 C 4,5 C
11.08.2011 07:24 11,2 C 81 % 1016 hPa 0,0 l/m 20,6 km/h (4 Bft) SW45 230 0 min 0 min 8,1 C 4,7 C
11.08.2011 07:39 11,2 C 81 % 1016 hPa 0,0 l/m 14,7 km/h (3 Bft) W-SW22.5 245 0 min 0 min 8,1 C 6,7 C
11.08.2011 07:54 11,3 C 80 % 1016 hPa 0,0 l/m 19,6 km/h (3 Bft) W-SW45 240 0 min 0 min 8,0 C 5,1 C
11.08.2011 08:09 11,6 C 80 % 1016 hPa 0,0 l/m 20,0 km/h (4 Bft) W-SW45 255 0 min 0 min 8,3 C 5,4 C
11.08.2011 08:24 12,0 C 80 % 1016 hPa 0,0 l/m 18,5 km/h (3 Bft) W-SW45 250 0 min 0 min 8,7 C 6,3 C
11.08.2011 08:39 12,3 C 80 % 1015 hPa 0,0 l/m 21,7 km/h (4 Bft) W45 260 0 min 0 min 8,9 C 5,8 C
11.08.2011 08:54 12,6 C 79 % 1015 hPa 0,0 l/m 17,6 km/h (3 Bft) W-SW45 250 0 min 0 min 9,1 C 7,4 C
11.08.2011 09:09 13,0 C 79 % 1015 hPa 0,0 l/m 25,3 km/h (4 Bft) W-SW67.5 250 0 min 0 min 9,4 C 5,8 C
11.08.2011 09:24 13,2 C 78 % 1015 hPa 0,0 l/m 26,8 km/h (4 Bft) W-SW45 250 0 min 0 min 9,4 C 5,8 C
11.08.2011 09:39 13,7 C 78 % 1015 hPa 0,0 l/m 23,5 km/h (4 Bft) W-SW22.5 240 0 min 0 min 9,9 C 7,2 C
11.08.2011 09:54 14,4 C 77 % 1015 hPa 0,0 l/m 26,3 km/h (4 Bft) W-SW67.5 250 0 min 0 min 10,4 C 7,5 C
11.08.2011 10:09 14,7 C 75 % 1015 hPa 0,0 l/m 29,2 km/h (5 Bft) W-SW67.5 240 0 min 0 min 10,3 C 7,4 C
11.08.2011 10:24 15,0 C 73 % 1015 hPa 0,0 l/m 30,0 km/h (5 Bft) SW45 220 0 min 0 min 10,2 C 7,7 C
11.08.2011 10:39 15,5 C 71 % 1015 hPa 0,0 l/m 31,9 km/h (5 Bft) W-SW22.5 240 0 min 0 min 10,3 C 8,1 C
11.08.2011 10:54 16,0 C 69 % 1015 hPa 0,0 l/m 34,6 km/h (5 Bft) SW45 235 0 min 0 min 10,3 C 8,4 C
11.08.2011 11:09 16,8 C 66 % 1015 hPa 0,0 l/m 33,6 km/h (5 Bft) W-SW45 250 0 min 0 min 10,4 C 9,7 C
11.08.2011 11:24 17,6 C 64 % 1015 hPa 0,0 l/m 31,0 km/h (5 Bft) W-SW67.5 250 0 min 0 min 10,7 C 11,2 C
11.08.2011 11:39 18,2 C 61 % 1015 hPa 0,0 l/m 35,9 km/h (5 Bft) W22.5 260 0 min 0 min 10,6 C 11,5 C
11.08.2011 11:54 18,8 C 60 % 1014 hPa 0,0 l/m 32,1 km/h (5 Bft) W-SW45 240 15 min 0 min 10,9 C 12,8 C
11.08.2011 12:09 19,9 C 58 % 1014 hPa 0,0 l/m 36,8 km/h (5 Bft) W-SW45 245 15 min 0 min 11,4 C 13,9 C
11.08.2011 12:24 20,0 C 57 % 1014 hPa 0,0 l/m 43,0 km/h (6 Bft) W-SW67.5 250 15 min 0 min 11,2 C 13,5 C
11.08.2011 12:39 19,4 C 55 % 1014 hPa 0,0 l/m 44,2 km/h (6 Bft) W45 260 0 min 0 min 10,1 C 12,5 C
11.08.2011 12:54 19,7 C 58 % 1014 hPa 0,0 l/m 35,5 km/h (5 Bft) W45 270 15 min 0 min 11,2 C 13,7 C
11.08.2011 13:09 20,2 C 56 % 1014 hPa 0,0 l/m 44,8 km/h (6 Bft) W45 260 15 min 0 min 11,1 C 13,7 C
11.08.2011 13:24 20,4 C 56 % 1014 hPa 0,0 l/m 37,6 km/h (5 Bft) W-SW45 250 15 min 0 min 11,3 C 14,5 C
11.08.2011 13:39 21,1 C 52 % 1014 hPa 0,0 l/m 40,4 km/h (6 Bft) W45 270 15 min 0 min 10,9 C 15,3 C
11.08.2011 13:54 21,3 C 53 % 1014 hPa 0,0 l/m 40,4 km/h (6 Bft) W67.5 265 15 min 0 min 11,3 C 15,6 C
11.08.2011 14:09 20,7 C 53 % 1014 hPa 0,0 l/m 41,2 km/h (6 Bft) W45 270 0 min 0 min 10,8 C 14,7 C
11.08.2011 14:24 20,8 C 56 % 1014 hPa 0,0 l/m 34,4 km/h (5 Bft) W-SW45 240 15 min 0 min 11,7 C 15,4 C
11.08.2011 14:39 21,4 C 51 % 1014 hPa 0,0 l/m 44,9 km/h (6 Bft) W45 270 15 min 0 min 10,8 C 15,5 C
11.08.2011 14:54 21,6 C 48 % 1014 hPa 0,0 l/m 42,3 km/h (6 Bft) W67.5 265 15 min 0 min 10,1 C 15,9 C
11.08.2011 15:09 21,0 C 50 % 1014 hPa 0,0 l/m 40,2 km/h (6 Bft) W-SW67.5 245 15 min 0 min 10,2 C 15,2 C
11.08.2011 15:24 21,8 C 48 % 1013 hPa 0,0 l/m 38,1 km/h (5 Bft) W45 260 15 min 0 min 10,3 C 16,5 C
11.08.2011 15:39 22,1 C 48 % 1013 hPa 0,0 l/m 40,2 km/h (6 Bft) W22.5 265 15 min 0 min 10,6 C 16,8 C
11.08.2011 15:54 22,1 C 46 % 1013 hPa 0,0 l/m 43,0 km/h (6 Bft) W-SW67.5 255 15 min 0 min 9,9 C 16,6 C
11.08.2011 16:09 21,8 C 48 % 1013 hPa 0,0 l/m 33,4 km/h (5 Bft) W-SW67.5 255 15 min 0 min 10,3 C 16,9 C
11.08.2011 16:24 21,6 C 47 % 1013 hPa 0,0 l/m 30,8 km/h (5 Bft) W-SW45 255 15 min 0 min 9,8 C 16,9 C
11.08.2011 16:39 21,4 C 50 % 1013 hPa 0,0 l/m 36,8 km/h (5 Bft) W-SW67.5 255 15 min 0 min 10,5 C 16,0 C
11.08.2011 16:54 21,4 C 51 % 1013 hPa 0,0 l/m 34,9 km/h (5 Bft) W-SW45 240 15 min 0 min 10,8 C 16,2 C
11.08.2011 17:09 21,3 C 51 % 1013 hPa 0,0 l/m 36,2 km/h (5 Bft) W45 260 15 min 0 min 10,7 C 16,0 C
11.08.2011 17:24 20,6 C 53 % 1013 hPa 0,0 l/m 29,1 km/h (5 Bft) W-SW45 245 15 min 0 min 10,7 C 15,7 C
11.08.2011 17:39 20,9 C 53 % 1013 hPa 0,0 l/m 40,1 km/h (6 Bft) W-SW67.5 240 15 min 0 min 11,0 C 15,0 C
11.08.2011 17:54 20,2 C 53 % 1013 hPa 0,0 l/m 24,0 km/h (4 Bft) SW67.5 230 0 min 0 min 10,3 C 15,8 C
11.08.2011 18:09 20,2 C 54 % 1013 hPa 0,0 l/m 33,6 km/h (5 Bft) SW67.5 215 0 min 0 min 10,6 C 14,6 C
11.08.2011 18:24 20,3 C 54 % 1013 hPa 0,0 l/m 25,9 km/h (4 Bft) W-SW45 250 0 min 0 min 10,7 C 15,7 C
11.08.2011 18:39 20,3 C 53 % 1012 hPa 0,0 l/m 29,0 km/h (5 Bft) SW45 225 0 min 0 min 10,4 C 15,3 C
11.08.2011 18:54 20,0 C 53 % 1012 hPa 0,0 l/m 31,8 km/h (5 Bft) W-SW45 240 0 min 0 min 10,1 C 14,5 C
11.08.2011 19:09 19,3 C 56 % 1012 hPa 0,0 l/m 33,9 km/h (5 Bft) W-SW45 250 0 min 0 min 10,3 C 13,3 C
11.08.2011 19:24 19,2 C 56 % 1012 hPa 0,0 l/m 24,8 km/h (4 Bft) SW67.5 220 0 min 0 min 10,2 C 14,3 C
11.08.2011 19:39 18,9 C 57 % 1012 hPa 0,0 l/m 24,8 km/h (4 Bft) S-SW45 210 0 min 0 min 10,2 C 13,9 C
11.08.2011 19:54 18,2 C 58 % 1012 hPa 0,0 l/m 25,1 km/h (4 Bft) SW45 230 0 min 0 min 9,8 C 12,9 C
11.08.2011 20:09 17,5 C 59 % 1012 hPa 0,0 l/m 18,3 km/h (3 Bft) S-SW45 205 0 min 0 min 9,4 C 13,4 C
11.08.2011 20:24 17,0 C 60 % 1012 hPa 0,0 l/m 16,8 km/h (3 Bft) SW22.5 215 0 min 0 min 9,2 C 13,1 C
11.08.2011 20:39 16,6 C 62 % 1012 hPa 0,0 l/m 15,9 km/h (3 Bft) S-SW22.5 205 0 min 0 min 9,3 C 12,9 C
11.08.2011 20:54 16,4 C 63 % 1012 hPa 0,0 l/m 15,6 km/h (3 Bft) S-SW22.5 205 0 min 0 min 9,3 C 12,7 C
11.08.2011 21:09 16,1 C 64 % 1012 hPa 0,0 l/m 10,8 km/h (2 Bft) S-SW22.5 210 0 min 0 min 9,3 C 14,0 C
11.08.2011 21:24 15,9 C 65 % 1012 hPa 0,0 l/m 11,2 km/h (2 Bft) S-SW67.5 195 0 min 0 min 9,3 C 13,6 C
11.08.2011 21:39 15,6 C 65 % 1012 hPa 0,0 l/m 14,3 km/h (3 Bft) S-SW22.5 200 0 min 0 min 9,0 C 12,1 C
11.08.2011 21:54 15,5 C 66 % 1012 hPa 0,0 l/m 17,8 km/h (3 Bft) S-SW45 210 0 min 0 min 9,2 C 11,0 C
11.08.2011 22:10 15,6 C 66 % 1012 hPa 0,0 l/m 13,8 km/h (3 Bft) SW45 215 0 min 0 min 9,3 C 12,3 C
11.08.2011 22:25 15,8 C 66 % 1012 hPa 0,0 l/m 15,8 km/h (3 Bft) SW22.5 215 0 min 0 min 9,5 C 11,9 C
11.08.2011 22:40 15,8 C 65 % 1012 hPa 0,0 l/m 16,5 km/h (3 Bft) SW45 215 0 min 0 min 9,2 C 11,7 C
11.08.2011 22:55 15,4 C 66 % 1012 hPa 0,0 l/m 21,1 km/h (4 Bft) SW45 215 0 min 0 min 9,1 C 10,0 C
11.08.2011 23:10 15,0 C 66 % 1012 hPa 0,0 l/m 19,0 km/h (3 Bft) SW22.5 225 0 min 0 min 8,7 C 10,0 C
11.08.2011 23:25 14,5 C 67 % 1012 hPa 0,0 l/m 15,0 km/h (3 Bft) SW45 225 0 min 0 min 8,4 C 10,6 C
11.08.2011 23:45 14,3 C 67 % 1012 hPa 0,0 l/m 18,5 km/h (3 Bft) SW45 235 0 min 0 min 8,3 C 9,3 C
_ Min-Zeit 04:09 15:54 18:39 - 04:09 - - - - 02:40 06:24
Minimum _ 10,1 C 46 % 1012 hPa - 6,3 km/h (2 Bft) - - - - 7,0 C 3,1 C
_ Max-Zeit 15:39 04:54 00:09 00:09 14:39 - - 11:54 00:09 14:24 16:09
Maximum _ 22,1 C 83 % 1018 hPa 0,0 l/m 44,9 km/h
W (6 Bft)
- - 15 min 0 min 11,7 C 16,9 C
Durchschnitt _ 15,5 C 67 % 1015 hPa #0,0 l/m 24,4 km/h (4 Bft) W-SW - #5:30 h #0 min. 9,2 C 10,4 C